Terminal Aerodrome Forecast
Issued by NWS Corpus Christi, TX

Home | Current Version | Previous Version | Text Only | Print | Product List | Glossary On
Versions: 1 2 3 4 5 6 7 8 9 10 11 12 13 14 15 16 17
000
FTUS44 KCRP 241128
TAFCRP
TAF
KCRP 241128Z 2412/2512 VRB04KT P6SM FEW250
     FM241600 13006KT P6SM FEW150 SCT250
     FM242000 13014KT P6SM FEW040 BKN150
     FM250200 16010KT P6SM FEW015
      TEMPO 2509/2512 BKN012=

USA.gov is the U.S. government's official web portal to all federal, state and local government web resources and services.